sensor_id;sensor_type;location;lat;lon;timestamp;P1;durP1;ratioP1;P2;durP2;ratioP2
18159;SDS011;9205;52.032;4.314;2022-11-18T00:01:06;1.27;;;1.00;;
18159;SDS011;9205;52.032;4.314;2022-11-18T00:03:35;2.30;;;1.53;;
18159;SDS011;9205;52.032;4.314;2022-11-18T00:06:03;1.73;;;1.17;;
18159;SDS011;9205;52.032;4.314;2022-11-18T00:08:33;1.70;;;1.30;;
18159;SDS011;9205;52.032;4.314;2022-11-18T00:11:05;1.30;;;1.20;;
18159;SDS011;9205;52.032;4.314;2022-11-18T00:13:37;2.10;;;1.20;;
18159;SDS011;9205;52.032;4.314;2022-11-18T00:16:23;1.90;;;1.30;;
18159;SDS011;9205;52.032;4.314;2022-11-18T00:18:50;2.00;;;1.10;;
18159;SDS011;9205;52.032;4.314;2022-11-18T00:21:17;2.73;;;1.47;;
18159;SDS011;9205;52.032;4.314;2022-11-18T00:23:47;2.17;;;1.43;;
18159;SDS011;9205;52.032;4.314;2022-11-18T00:26:15;2.53;;;1.33;;
18159;SDS011;9205;52.032;4.314;2022-11-18T00:28:43;1.60;;;1.40;;
18159;SDS011;9205;52.032;4.314;2022-11-18T00:31:11;1.73;;;1.40;;
18159;SDS011;9205;52.032;4.314;2022-11-18T00:33:39;2.00;;;1.40;;
18159;SDS011;9205;52.032;4.314;2022-11-18T00:36:09;2.40;;;1.33;;
18159;SDS011;9205;52.032;4.314;2022-11-18T00:38:38;2.47;;;1.43;;
18159;SDS011;9205;52.032;4.314;2022-11-18T00:41:06;2.67;;;1.60;;
18159;SDS011;9205;52.032;4.314;2022-11-18T00:43:37;1.40;;;1.20;;
18159;SDS011;9205;52.032;4.314;2022-11-18T00:46:05;3.30;;;1.33;;
18159;SDS011;9205;52.032;4.314;2022-11-18T00:48:34;4.90;;;1.60;;
18159;SDS011;9205;52.032;4.314;2022-11-18T00:51:05;1.73;;;1.37;;
18159;SDS011;9205;52.032;4.314;2022-11-18T00:53:35;1.73;;;1.50;;
18159;SDS011;9205;52.032;4.314;2022-11-18T00:56:03;5.07;;;1.57;;
18159;SDS011;9205;52.032;4.314;2022-11-18T00:58:31;2.50;;;1.60;;
18159;SDS011;9205;52.032;4.314;2022-11-18T01:01:00;1.40;;;1.30;;
18159;SDS011;9205;52.032;4.314;2022-11-18T01:03:29;1.50;;;1.40;;
18159;SDS011;9205;52.032;4.314;2022-11-18T01:05:56;2.20;;;1.50;;
18159;SDS011;9205;52.032;4.314;2022-11-18T01:08:24;2.00;;;1.60;;
18159;SDS011;9205;52.032;4.314;2022-11-18T01:10:51;1.40;;;1.30;;
18159;SDS011;9205;52.032;4.314;2022-11-18T01:13:19;2.83;;;1.70;;
18159;SDS011;9205;52.032;4.314;2022-11-18T01:15:48;2.93;;;1.50;;
18159;SDS011;9205;52.032;4.314;2022-11-18T01:18:22;1.43;;;1.20;;
18159;SDS011;9205;52.032;4.314;2022-11-18T01:20:51;2.00;;;1.53;;
18159;SDS011;9205;52.032;4.314;2022-11-18T01:23:19;1.43;;;1.30;;
18159;SDS011;9205;52.032;4.314;2022-11-18T01:25:48;3.30;;;1.77;;
18159;SDS011;9205;52.032;4.314;2022-11-18T01:28:15;2.07;;;1.40;;
18159;SDS011;9205;52.032;4.314;2022-11-18T01:30:44;3.73;;;1.20;;
18159;SDS011;9205;52.032;4.314;2022-11-18T01:33:12;1.73;;;1.40;;
18159;SDS011;9205;52.032;4.314;2022-11-18T01:35:41;2.27;;;1.57;;
18159;SDS011;9205;52.032;4.314;2022-11-18T01:38:11;2.73;;;1.50;;
18159;SDS011;9205;52.032;4.314;2022-11-18T01:40:40;2.33;;;1.27;;
18159;SDS011;9205;52.032;4.314;2022-11-18T01:43:08;2.53;;;1.50;;
18159;SDS011;9205;52.032;4.314;2022-11-18T01:45:40;4.23;;;1.53;;
18159;SDS011;9205;52.032;4.314;2022-11-18T01:48:11;3.30;;;1.50;;
18159;SDS011;9205;52.032;4.314;2022-11-18T01:50:46;2.13;;;1.47;;
18159;SDS011;9205;52.032;4.314;2022-11-18T01:53:22;2.23;;;1.60;;
18159;SDS011;9205;52.032;4.314;2022-11-18T01:56:01;2.07;;;1.40;;
18159;SDS011;9205;52.032;4.314;2022-11-18T01:58:38;3.83;;;1.50;;
18159;SDS011;9205;52.032;4.314;2022-11-18T02:01:10;2.20;;;1.40;;
18159;SDS011;9205;52.032;4.314;2022-11-18T02:03:38;2.47;;;1.70;;
18159;SDS011;9205;52.032;4.314;2022-11-18T02:06:09;2.90;;;1.60;;
18159;SDS011;9205;52.032;4.314;2022-11-18T02:08:39;1.70;;;1.30;;
18159;SDS011;9205;52.032;4.314;2022-11-18T02:11:08;3.57;;;1.63;;
18159;SDS011;9205;52.032;4.314;2022-11-18T02:13:59;1.43;;;1.20;;
18159;SDS011;9205;52.032;4.314;2022-11-18T02:16:33;2.17;;;1.70;;
18159;SDS011;9205;52.032;4.314;2022-11-18T02:19:25;2.60;;;1.50;;
18159;SDS011;9205;52.032;4.314;2022-11-18T02:22:31;3.40;;;1.83;;
18159;SDS011;9205;52.032;4.314;2022-11-18T02:25:40;2.30;;;1.70;;
18159;SDS011;9205;52.032;4.314;2022-11-18T02:28:35;2.27;;;1.50;;
18159;SDS011;9205;52.032;4.314;2022-11-18T02:31:16;3.17;;;1.80;;
18159;SDS011;9205;52.032;4.314;2022-11-18T02:33:53;1.40;;;1.30;;
18159;SDS011;9205;52.032;4.314;2022-11-18T02:36:27;1.80;;;1.53;;
18159;SDS011;9205;52.032;4.314;2022-11-18T02:39:04;4.43;;;1.87;;
18159;SDS011;9205;52.032;4.314;2022-11-18T02:41:38;5.70;;;2.07;;
18159;SDS011;9205;52.032;4.314;2022-11-18T02:44:11;1.93;;;1.60;;
18159;SDS011;9205;52.032;4.314;2022-11-18T02:46:45;2.10;;;1.40;;
18159;SDS011;9205;52.032;4.314;2022-11-18T02:49:21;4.27;;;1.83;;
18159;SDS011;9205;52.032;4.314;2022-11-18T02:51:56;3.30;;;1.97;;
18159;SDS011;9205;52.032;4.314;2022-11-18T02:54:26;1.57;;;1.30;;
18159;SDS011;9205;52.032;4.314;2022-11-18T02:56:55;3.00;;;1.60;;
18159;SDS011;9205;52.032;4.314;2022-11-18T02:59:26;4.07;;;1.80;;
18159;SDS011;9205;52.032;4.314;2022-11-18T03:01:54;3.17;;;1.87;;
18159;SDS011;9205;52.032;4.314;2022-11-18T03:04:21;2.53;;;1.57;;
18159;SDS011;9205;52.032;4.314;2022-11-18T03:06:52;2.33;;;1.63;;
18159;SDS011;9205;52.032;4.314;2022-11-18T03:09:30;1.93;;;1.50;;
18159;SDS011;9205;52.032;4.314;2022-11-18T03:12:05;2.63;;;1.50;;
18159;SDS011;9205;52.032;4.314;2022-11-18T03:14:48;2.07;;;1.50;;
18159;SDS011;9205;52.032;4.314;2022-11-18T03:17:29;3.63;;;1.67;;
18159;SDS011;9205;52.032;4.314;2022-11-18T03:20:13;2.87;;;1.80;;
18159;SDS011;9205;52.032;4.314;2022-11-18T03:22:51;2.77;;;1.40;;
18159;SDS011;9205;52.032;4.314;2022-11-18T03:25:27;7.83;;;1.70;;
18159;SDS011;9205;52.032;4.314;2022-11-18T03:28:13;2.30;;;1.87;;
18159;SDS011;9205;52.032;4.314;2022-11-18T03:30:52;3.90;;;1.63;;
18159;SDS011;9205;52.032;4.314;2022-11-18T03:33:29;1.93;;;1.40;;
18159;SDS011;9205;52.032;4.314;2022-11-18T03:36:01;2.37;;;1.70;;
18159;SDS011;9205;52.032;4.314;2022-11-18T03:38:35;2.50;;;1.70;;
18159;SDS011;9205;52.032;4.314;2022-11-18T03:41:09;1.77;;;1.37;;
18159;SDS011;9205;52.032;4.314;2022-11-18T03:43:42;1.90;;;1.60;;
18159;SDS011;9205;52.032;4.314;2022-11-18T03:46:17;1.57;;;1.43;;
18159;SDS011;9205;52.032;4.314;2022-11-18T03:48:50;2.80;;;1.60;;
18159;SDS011;9205;52.032;4.314;2022-11-18T03:51:21;1.87;;;1.50;;
18159;SDS011;9205;52.032;4.314;2022-11-18T03:53:55;4.10;;;1.63;;
18159;SDS011;9205;52.032;4.314;2022-11-18T03:56:29;3.30;;;1.80;;
18159;SDS011;9205;52.032;4.314;2022-11-18T03:59:04;3.93;;;1.60;;
18159;SDS011;9205;52.032;4.314;2022-11-18T04:01:40;1.97;;;1.63;;
18159;SDS011;9205;52.032;4.314;2022-11-18T04:04:16;2.90;;;1.70;;
18159;SDS011;9205;52.032;4.314;2022-11-18T04:06:45;2.80;;;1.70;;
18159;SDS011;9205;52.032;4.314;2022-11-18T04:09:17;2.27;;;1.60;;
18159;SDS011;9205;52.032;4.314;2022-11-18T04:11:50;3.80;;;1.93;;
18159;SDS011;9205;52.032;4.314;2022-11-18T04:14:28;5.50;;;2.07;;
18159;SDS011;9205;52.032;4.314;2022-11-18T04:17:02;2.20;;;1.70;;
18159;SDS011;9205;52.032;4.314;2022-11-18T04:19:33;4.70;;;1.60;;
18159;SDS011;9205;52.032;4.314;2022-11-18T04:22:01;3.07;;;1.97;;
18159;SDS011;9205;52.032;4.314;2022-11-18T04:24:28;5.13;;;1.80;;
18159;SDS011;9205;52.032;4.314;2022-11-18T04:26:55;4.67;;;2.20;;
18159;SDS011;9205;52.032;4.314;2022-11-18T04:29:23;3.00;;;1.97;;
18159;SDS011;9205;52.032;4.314;2022-11-18T04:31:50;3.03;;;1.90;;
18159;SDS011;9205;52.032;4.314;2022-11-18T04:34:19;4.23;;;2.00;;
18159;SDS011;9205;52.032;4.314;2022-11-18T04:36:46;3.97;;;2.20;;
18159;SDS011;9205;52.032;4.314;2022-11-18T04:39:13;2.50;;;1.60;;
18159;SDS011;9205;52.032;4.314;2022-11-18T04:41:42;3.67;;;2.00;;
18159;SDS011;9205;52.032;4.314;2022-11-18T04:44:21;4.60;;;2.13;;
18159;SDS011;9205;52.032;4.314;2022-11-18T04:46:50;4.03;;;1.97;;
18159;SDS011;9205;52.032;4.314;2022-11-18T04:49:19;2.50;;;1.50;;
18159;SDS011;9205;52.032;4.314;2022-11-18T04:51:47;4.97;;;2.00;;
18159;SDS011;9205;52.032;4.314;2022-11-18T04:54:15;2.43;;;1.93;;
18159;SDS011;9205;52.032;4.314;2022-11-18T04:56:43;4.37;;;2.37;;
18159;SDS011;9205;52.032;4.314;2022-11-18T04:59:12;3.57;;;1.60;;
18159;SDS011;9205;52.032;4.314;2022-11-18T05:01:41;3.20;;;1.70;;
18159;SDS011;9205;52.032;4.314;2022-11-18T05:04:10;3.70;;;1.83;;
18159;SDS011;9205;52.032;4.314;2022-11-18T05:06:42;2.97;;;1.70;;
18159;SDS011;9205;52.032;4.314;2022-11-18T05:09:09;3.20;;;1.60;;
18159;SDS011;9205;52.032;4.314;2022-11-18T05:11:37;4.13;;;1.60;;
18159;SDS011;9205;52.032;4.314;2022-11-18T05:14:23;2.67;;;1.40;;
18159;SDS011;9205;52.032;4.314;2022-11-18T05:16:51;1.90;;;1.50;;
18159;SDS011;9205;52.032;4.314;2022-11-18T05:19:19;1.73;;;1.30;;
18159;SDS011;9205;52.032;4.314;2022-11-18T05:21:48;3.00;;;1.60;;
18159;SDS011;9205;52.032;4.314;2022-11-18T05:24:15;1.83;;;1.37;;
18159;SDS011;9205;52.032;4.314;2022-11-18T05:26:58;3.00;;;1.70;;
18159;SDS011;9205;52.032;4.314;2022-11-18T05:29:25;3.17;;;1.70;;
18159;SDS011;9205;52.032;4.314;2022-11-18T05:31:53;1.30;;;1.20;;
18159;SDS011;9205;52.032;4.314;2022-11-18T05:34:20;2.67;;;1.80;;
18159;SDS011;9205;52.032;4.314;2022-11-18T05:36:49;1.63;;;1.37;;
18159;SDS011;9205;52.032;4.314;2022-11-18T05:39:17;3.23;;;1.80;;
18159;SDS011;9205;52.032;4.314;2022-11-18T05:41:44;2.83;;;1.47;;
18159;SDS011;9205;52.032;4.314;2022-11-18T05:44:29;4.97;;;1.60;;
18159;SDS011;9205;52.032;4.314;2022-11-18T05:46:56;1.37;;;1.27;;
18159;SDS011;9205;52.032;4.314;2022-11-18T05:49:24;3.73;;;1.60;;
18159;SDS011;9205;52.032;4.314;2022-11-18T05:51:53;3.73;;;1.57;;
18159;SDS011;9205;52.032;4.314;2022-11-18T05:54:20;3.83;;;1.47;;
18159;SDS011;9205;52.032;4.314;2022-11-18T05:56:48;2.30;;;1.33;;
18159;SDS011;9205;52.032;4.314;2022-11-18T05:59:16;2.17;;;1.50;;
18159;SDS011;9205;52.032;4.314;2022-11-18T06:01:44;2.00;;;1.60;;
18159;SDS011;9205;52.032;4.314;2022-11-18T06:04:16;1.87;;;1.27;;
18159;SDS011;9205;52.032;4.314;2022-11-18T06:06:47;2.77;;;1.33;;
18159;SDS011;9205;52.032;4.314;2022-11-18T06:09:18;5.67;;;1.70;;
18159;SDS011;9205;52.032;4.314;2022-11-18T06:11:52;1.90;;;1.50;;
18159;SDS011;9205;52.032;4.314;2022-11-18T06:14:26;3.43;;;1.30;;
18159;SDS011;9205;52.032;4.314;2022-11-18T06:17:01;1.30;;;1.20;;
18159;SDS011;9205;52.032;4.314;2022-11-18T06:19:34;5.30;;;1.50;;
18159;SDS011;9205;52.032;4.314;2022-11-18T06:22:01;2.30;;;1.43;;
18159;SDS011;9205;52.032;4.314;2022-11-18T06:24:31;2.03;;;1.20;;
18159;SDS011;9205;52.032;4.314;2022-11-18T06:26:59;2.57;;;1.50;;
18159;SDS011;9205;52.032;4.314;2022-11-18T06:29:27;2.90;;;1.33;;
18159;SDS011;9205;52.032;4.314;2022-11-18T06:31:56;2.30;;;1.40;;
18159;SDS011;9205;52.032;4.314;2022-11-18T06:34:23;4.87;;;1.60;;
18159;SDS011;9205;52.032;4.314;2022-11-18T06:36:51;3.67;;;1.50;;
18159;SDS011;9205;52.032;4.314;2022-11-18T06:39:18;6.13;;;1.50;;
18159;SDS011;9205;52.032;4.314;2022-11-18T06:41:47;4.20;;;1.70;;
18159;SDS011;9205;52.032;4.314;2022-11-18T06:44:15;3.10;;;1.33;;
18159;SDS011;9205;52.032;4.314;2022-11-18T06:46:41;3.30;;;1.57;;
18159;SDS011;9205;52.032;4.314;2022-11-18T06:49:24;4.27;;;1.77;;
18159;SDS011;9205;52.032;4.314;2022-11-18T06:51:52;1.70;;;1.50;;
18159;SDS011;9205;52.032;4.314;2022-11-18T06:54:20;4.13;;;1.93;;
18159;SDS011;9205;52.032;4.314;2022-11-18T06:56:49;2.50;;;1.67;;
18159;SDS011;9205;52.032;4.314;2022-11-18T06:59:16;1.93;;;1.50;;
18159;SDS011;9205;52.032;4.314;2022-11-18T07:01:47;2.60;;;1.50;;
18159;SDS011;9205;52.032;4.314;2022-11-18T07:04:17;2.10;;;1.50;;
18159;SDS011;9205;52.032;4.314;2022-11-18T07:06:44;5.23;;;1.37;;
18159;SDS011;9205;52.032;4.314;2022-11-18T07:09:12;2.00;;;1.10;;
18159;SDS011;9205;52.032;4.314;2022-11-18T07:11:39;1.97;;;1.37;;
18159;SDS011;9205;52.032;4.314;2022-11-18T07:14:08;1.70;;;1.40;;
18159;SDS011;9205;52.032;4.314;2022-11-18T07:16:36;2.67;;;1.80;;
18159;SDS011;9205;52.032;4.314;2022-11-18T07:19:06;3.67;;;1.90;;
18159;SDS011;9205;52.032;4.314;2022-11-18T07:21:36;2.80;;;1.70;;
18159;SDS011;9205;52.032;4.314;2022-11-18T07:24:04;2.97;;;1.83;;
18159;SDS011;9205;52.032;4.314;2022-11-18T07:26:34;2.00;;;1.50;;
18159;SDS011;9205;52.032;4.314;2022-11-18T07:29:01;3.73;;;2.00;;
18159;SDS011;9205;52.032;4.314;2022-11-18T07:31:30;5.70;;;1.87;;
18159;SDS011;9205;52.032;4.314;2022-11-18T07:33:59;3.80;;;1.60;;
18159;SDS011;9205;52.032;4.314;2022-11-18T07:36:27;2.40;;;1.50;;
18159;SDS011;9205;52.032;4.314;2022-11-18T07:38:56;4.33;;;2.00;;
18159;SDS011;9205;52.032;4.314;2022-11-18T07:41:26;5.03;;;1.70;;
18159;SDS011;9205;52.032;4.314;2022-11-18T07:43:55;5.97;;;1.83;;
18159;SDS011;9205;52.032;4.314;2022-11-18T07:46:25;4.50;;;3.53;;
18159;SDS011;9205;52.032;4.314;2022-11-18T07:48:59;2.40;;;1.20;;
18159;SDS011;9205;52.032;4.314;2022-11-18T07:51:30;3.27;;;1.57;;
18159;SDS011;9205;52.032;4.314;2022-11-18T07:53:59;2.90;;;1.50;;
18159;SDS011;9205;52.032;4.314;2022-11-18T07:56:27;1.67;;;1.30;;
18159;SDS011;9205;52.032;4.314;2022-11-18T07:58:54;3.03;;;1.70;;
18159;SDS011;9205;52.032;4.314;2022-11-18T08:01:23;3.20;;;2.17;;
18159;SDS011;9205;52.032;4.314;2022-11-18T08:03:53;2.37;;;1.50;;
18159;SDS011;9205;52.032;4.314;2022-11-18T08:06:21;3.23;;;1.97;;
18159;SDS011;9205;52.032;4.314;2022-11-18T08:08:49;2.90;;;2.00;;
18159;SDS011;9205;52.032;4.314;2022-11-18T08:11:17;2.97;;;1.57;;
18159;SDS011;9205;52.032;4.314;2022-11-18T08:13:45;6.33;;;2.00;;
18159;SDS011;9205;52.032;4.314;2022-11-18T08:16:13;2.63;;;1.70;;
18159;SDS011;9205;52.032;4.314;2022-11-18T08:18:43;3.70;;;1.57;;
18159;SDS011;9205;52.032;4.314;2022-11-18T08:21:11;2.60;;;1.60;;
18159;SDS011;9205;52.032;4.314;2022-11-18T08:23:41;2.43;;;1.90;;
18159;SDS011;9205;52.032;4.314;2022-11-18T08:26:10;4.33;;;1.73;;
18159;SDS011;9205;52.032;4.314;2022-11-18T08:28:39;1.60;;;1.20;;
18159;SDS011;9205;52.032;4.314;2022-11-18T08:31:10;2.10;;;1.80;;
18159;SDS011;9205;52.032;4.314;2022-11-18T08:33:39;2.70;;;1.67;;
18159;SDS011;9205;52.032;4.314;2022-11-18T08:36:07;5.37;;;1.47;;
18159;SDS011;9205;52.032;4.314;2022-11-18T08:38:38;4.50;;;1.60;;
18159;SDS011;9205;52.032;4.314;2022-11-18T08:41:08;6.20;;;1.77;;
18159;SDS011;9205;52.032;4.314;2022-11-18T08:43:37;4.90;;;1.90;;
18159;SDS011;9205;52.032;4.314;2022-11-18T08:46:07;5.97;;;2.30;;
18159;SDS011;9205;52.032;4.314;2022-11-18T08:48:35;5.00;;;2.60;;
18159;SDS011;9205;52.032;4.314;2022-11-18T08:51:02;3.17;;;1.97;;
18159;SDS011;9205;52.032;4.314;2022-11-18T08:53:30;4.73;;;2.53;;
18159;SDS011;9205;52.032;4.314;2022-11-18T08:55:58;2.50;;;1.60;;
18159;SDS011;9205;52.032;4.314;2022-11-18T08:58:28;3.90;;;1.83;;
18159;SDS011;9205;52.032;4.314;2022-11-18T09:00:55;5.33;;;1.60;;
18159;SDS011;9205;52.032;4.314;2022-11-18T09:03:22;3.10;;;1.63;;
18159;SDS011;9205;52.032;4.314;2022-11-18T09:05:50;3.27;;;1.37;;
18159;SDS011;9205;52.032;4.314;2022-11-18T09:08:17;2.70;;;1.40;;
18159;SDS011;9205;52.032;4.314;2022-11-18T09:10:46;3.10;;;1.50;;
18159;SDS011;9205;52.032;4.314;2022-11-18T09:13:13;2.63;;;1.67;;
18159;SDS011;9205;52.032;4.314;2022-11-18T09:15:41;8.33;;;2.23;;
18159;SDS011;9205;52.032;4.314;2022-11-18T09:18:09;3.43;;;1.90;;
18159;SDS011;9205;52.032;4.314;2022-11-18T09:20:36;5.73;;;2.33;;
18159;SDS011;9205;52.032;4.314;2022-11-18T09:23:05;3.27;;;2.20;;
18159;SDS011;9205;52.032;4.314;2022-11-18T09:25:32;5.30;;;2.60;;
18159;SDS011;9205;52.032;4.314;2022-11-18T09:27:59;4.70;;;2.27;;
18159;SDS011;9205;52.032;4.314;2022-11-18T09:30:27;5.87;;;1.93;;
18159;SDS011;9205;52.032;4.314;2022-11-18T09:32:56;3.67;;;2.00;;
18159;SDS011;9205;52.032;4.314;2022-11-18T09:35:23;7.30;;;1.53;;
18159;SDS011;9205;52.032;4.314;2022-11-18T09:37:50;4.60;;;1.60;;
18159;SDS011;9205;52.032;4.314;2022-11-18T09:40:17;2.17;;;1.70;;
18159;SDS011;9205;52.032;4.314;2022-11-18T09:42:49;4.17;;;1.80;;
18159;SDS011;9205;52.032;4.314;2022-11-18T09:45:48;3.60;;;2.07;;
18159;SDS011;9205;52.032;4.314;2022-11-18T09:48:26;2.97;;;1.40;;
18159;SDS011;9205;52.032;4.314;2022-11-18T09:51:08;3.27;;;1.47;;
18159;SDS011;9205;52.032;4.314;2022-11-18T09:53:37;3.13;;;1.50;;
18159;SDS011;9205;52.032;4.314;2022-11-18T09:56:11;5.77;;;1.80;;
18159;SDS011;9205;52.032;4.314;2022-11-18T09:58:42;2.37;;;1.50;;
18159;SDS011;9205;52.032;4.314;2022-11-18T10:01:11;4.17;;;1.60;;
18159;SDS011;9205;52.032;4.314;2022-11-18T10:03:45;7.67;;;2.00;;
18159;SDS011;9205;52.032;4.314;2022-11-18T10:06:15;3.43;;;1.80;;
18159;SDS011;9205;52.032;4.314;2022-11-18T10:08:50;3.57;;;1.67;;
18159;SDS011;9205;52.032;4.314;2022-11-18T10:11:42;2.33;;;1.77;;
18159;SDS011;9205;52.032;4.314;2022-11-18T10:14:49;4.70;;;1.60;;
18159;SDS011;9205;52.032;4.314;2022-11-18T10:17:34;3.27;;;1.60;;
18159;SDS011;9205;52.032;4.314;2022-11-18T10:20:18;5.33;;;1.80;;
18159;SDS011;9205;52.032;4.314;2022-11-18T10:22:59;1.67;;;1.33;;
18159;SDS011;9205;52.032;4.314;2022-11-18T10:25:36;4.43;;;1.77;;
18159;SDS011;9205;52.032;4.314;2022-11-18T10:28:12;2.90;;;1.30;;
18159;SDS011;9205;52.032;4.314;2022-11-18T10:30:49;2.20;;;1.60;;
18159;SDS011;9205;52.032;4.314;2022-11-18T10:33:27;1.67;;;1.23;;
18159;SDS011;9205;52.032;4.314;2022-11-18T10:36:08;4.57;;;1.63;;
18159;SDS011;9205;52.032;4.314;2022-11-18T10:39:03;5.33;;;1.60;;
18159;SDS011;9205;52.032;4.314;2022-11-18T10:41:43;2.97;;;1.50;;
18159;SDS011;9205;52.032;4.314;2022-11-18T10:44:24;3.73;;;1.53;;
18159;SDS011;9205;52.032;4.314;2022-11-18T10:49:54;1.40;;;1.20;;
18159;SDS011;9205;52.032;4.314;2022-11-18T10:52:26;4.30;;;1.63;;
18159;SDS011;9205;52.032;4.314;2022-11-18T10:55:05;3.13;;;1.97;;
18159;SDS011;9205;52.032;4.314;2022-11-18T10:57:46;4.07;;;1.43;;
18159;SDS011;9205;52.032;4.314;2022-11-18T11:03:19;3.03;;;1.70;;
18159;SDS011;9205;52.032;4.314;2022-11-18T11:06:13;3.73;;;2.07;;
18159;SDS011;9205;52.032;4.314;2022-11-18T11:08:59;3.13;;;1.50;;
18159;SDS011;9205;52.032;4.314;2022-11-18T11:11:31;3.00;;;1.80;;
18159;SDS011;9205;52.032;4.314;2022-11-18T11:16:57;3.83;;;1.83;;
18159;SDS011;9205;52.032;4.314;2022-11-18T11:19:43;2.97;;;1.93;;
18159;SDS011;9205;52.032;4.314;2022-11-18T11:22:18;4.93;;;1.80;;
18159;SDS011;9205;52.032;4.314;2022-11-18T11:24:46;5.77;;;2.40;;
18159;SDS011;9205;52.032;4.314;2022-11-18T11:27:20;3.77;;;2.30;;
18159;SDS011;9205;52.032;4.314;2022-11-18T11:30:12;3.30;;;2.47;;
18159;SDS011;9205;52.032;4.314;2022-11-18T11:32:56;7.37;;;2.77;;
18159;SDS011;9205;52.032;4.314;2022-11-18T11:35:54;5.07;;;2.90;;
18159;SDS011;9205;52.032;4.314;2022-11-18T11:38:50;4.67;;;2.90;;
18159;SDS011;9205;52.032;4.314;2022-11-18T11:41:27;7.43;;;2.27;;
18159;SDS011;9205;52.032;4.314;2022-11-18T11:47:02;5.10;;;2.77;;
18159;SDS011;9205;52.032;4.314;2022-11-18T11:50:12;5.33;;;3.33;;
18159;SDS011;9205;52.032;4.314;2022-11-18T11:52:49;7.17;;;3.23;;
18159;SDS011;9205;52.032;4.314;2022-11-18T11:55:34;5.97;;;3.60;;
18159;SDS011;9205;52.032;4.314;2022-11-18T11:58:24;5.80;;;3.57;;
18159;SDS011;9205;52.032;4.314;2022-11-18T12:01:30;8.60;;;4.10;;
18159;SDS011;9205;52.032;4.314;2022-11-18T12:04:13;5.63;;;3.23;;
18159;SDS011;9205;52.032;4.314;2022-11-18T12:06:55;6.10;;;3.17;;
18159;SDS011;9205;52.032;4.314;2022-11-18T12:09:26;5.30;;;3.10;;
18159;SDS011;9205;52.032;4.314;2022-11-18T12:12:10;6.27;;;3.57;;
18159;SDS011;9205;52.032;4.314;2022-11-18T12:15:18;5.20;;;3.33;;
18159;SDS011;9205;52.032;4.314;2022-11-18T12:17:58;7.20;;;2.90;;
18159;SDS011;9205;52.032;4.314;2022-11-18T12:20:40;4.50;;;3.27;;
18159;SDS011;9205;52.032;4.314;2022-11-18T12:23:12;6.03;;;3.80;;
18159;SDS011;9205;52.032;4.314;2022-11-18T12:25:52;6.30;;;3.70;;
18159;SDS011;9205;52.032;4.314;2022-11-18T12:28:29;8.13;;;4.10;;
18159;SDS011;9205;52.032;4.314;2022-11-18T12:34:15;6.10;;;3.90;;
18159;SDS011;9205;52.032;4.314;2022-11-18T12:36:56;7.60;;;3.80;;
18159;SDS011;9205;52.032;4.314;2022-11-18T12:40:10;5.03;;;3.50;;
18159;SDS011;9205;52.032;4.314;2022-11-18T12:43:10;6.23;;;4.07;;
18159;SDS011;9205;52.032;4.314;2022-11-18T12:46:53;5.83;;;3.97;;
18159;SDS011;9205;52.032;4.314;2022-11-18T12:52:52;5.27;;;3.33;;
18159;SDS011;9205;52.032;4.314;2022-11-18T12:55:21;8.27;;;4.10;;
18159;SDS011;9205;52.032;4.314;2022-11-18T12:57:57;8.03;;;3.60;;
18159;SDS011;9205;52.032;4.314;2022-11-18T13:00:29;9.20;;;4.07;;
18159;SDS011;9205;52.032;4.314;2022-11-18T13:03:24;5.30;;;3.57;;
18159;SDS011;9205;52.032;4.314;2022-11-18T13:05:58;4.60;;;3.47;;
18159;SDS011;9205;52.032;4.314;2022-11-18T13:08:30;5.03;;;3.60;;
18159;SDS011;9205;52.032;4.314;2022-11-18T13:11:01;8.40;;;3.53;;
18159;SDS011;9205;52.032;4.314;2022-11-18T13:14:01;6.13;;;3.47;;
18159;SDS011;9205;52.032;4.314;2022-11-18T13:16:49;6.23;;;3.50;;
18159;SDS011;9205;52.032;4.314;2022-11-18T13:19:35;4.33;;;2.87;;
18159;SDS011;9205;52.032;4.314;2022-11-18T13:22:03;5.43;;;3.63;;
18159;SDS011;9205;52.032;4.314;2022-11-18T13:24:59;5.83;;;3.63;;
18159;SDS011;9205;52.032;4.314;2022-11-18T13:27:30;9.43;;;3.87;;
18159;SDS011;9205;52.032;4.314;2022-11-18T13:30:11;5.83;;;3.50;;
18159;SDS011;9205;52.032;4.314;2022-11-18T13:32:42;5.87;;;4.20;;
18159;SDS011;9205;52.032;4.314;2022-11-18T13:35:14;6.03;;;3.60;;
18159;SDS011;9205;52.032;4.314;2022-11-18T13:37:47;7.97;;;3.80;;
18159;SDS011;9205;52.032;4.314;2022-11-18T13:40:18;4.87;;;3.53;;
18159;SDS011;9205;52.032;4.314;2022-11-18T13:42:49;5.10;;;3.43;;
18159;SDS011;9205;52.032;4.314;2022-11-18T13:45:17;6.13;;;4.20;;
18159;SDS011;9205;52.032;4.314;2022-11-18T13:47:46;9.13;;;3.90;;
18159;SDS011;9205;52.032;4.314;2022-11-18T13:50:20;5.10;;;3.77;;
18159;SDS011;9205;52.032;4.314;2022-11-18T13:52:57;6.63;;;4.13;;
18159;SDS011;9205;52.032;4.314;2022-11-18T13:55:45;7.23;;;3.87;;
18159;SDS011;9205;52.032;4.314;2022-11-18T13:58:30;5.20;;;3.23;;
18159;SDS011;9205;52.032;4.314;2022-11-18T14:01:03;5.93;;;3.47;;
18159;SDS011;9205;52.032;4.314;2022-11-18T14:03:39;5.07;;;3.30;;
18159;SDS011;9205;52.032;4.314;2022-11-18T14:06:24;4.87;;;2.90;;
18159;SDS011;9205;52.032;4.314;2022-11-18T14:09:03;4.33;;;2.83;;
18159;SDS011;9205;52.032;4.314;2022-11-18T14:11:41;3.40;;;2.73;;
18159;SDS011;9205;52.032;4.314;2022-11-18T14:17:04;5.00;;;3.00;;
18159;SDS011;9205;52.032;4.314;2022-11-18T14:19:42;2.90;;;2.60;;
18159;SDS011;9205;52.032;4.314;2022-11-18T14:22:13;3.50;;;2.60;;
18159;SDS011;9205;52.032;4.314;2022-11-18T14:24:44;3.20;;;2.40;;
18159;SDS011;9205;52.032;4.314;2022-11-18T14:30:25;2.57;;;2.30;;
18159;SDS011;9205;52.032;4.314;2022-11-18T14:33:09;2.80;;;2.10;;
18159;SDS011;9205;52.032;4.314;2022-11-18T14:35:47;2.90;;;2.30;;
18159;SDS011;9205;52.032;4.314;2022-11-18T14:38:23;4.50;;;2.23;;
18159;SDS011;9205;52.032;4.314;2022-11-18T14:41:05;2.30;;;2.10;;
18159;SDS011;9205;52.032;4.314;2022-11-18T14:43:38;4.33;;;2.20;;
18159;SDS011;9205;52.032;4.314;2022-11-18T14:46:11;3.43;;;2.20;;
18159;SDS011;9205;52.032;4.314;2022-11-18T14:48:43;4.27;;;1.90;;
18159;SDS011;9205;52.032;4.314;2022-11-18T14:51:12;4.63;;;2.23;;
18159;SDS011;9205;52.032;4.314;2022-11-18T14:53:48;4.30;;;2.40;;
18159;SDS011;9205;52.032;4.314;2022-11-18T14:56:17;2.40;;;2.07;;
18159;SDS011;9205;52.032;4.314;2022-11-18T14:58:51;3.37;;;2.33;;
18159;SDS011;9205;52.032;4.314;2022-11-18T15:01:18;3.77;;;2.20;;
18159;SDS011;9205;52.032;4.314;2022-11-18T15:03:49;3.60;;;2.10;;
18159;SDS011;9205;52.032;4.314;2022-11-18T15:06:17;2.50;;;1.93;;
18159;SDS011;9205;52.032;4.314;2022-11-18T15:08:48;4.00;;;2.20;;
18159;SDS011;9205;52.032;4.314;2022-11-18T15:11:17;3.00;;;1.90;;
18159;SDS011;9205;52.032;4.314;2022-11-18T15:13:45;3.27;;;2.10;;
18159;SDS011;9205;52.032;4.314;2022-11-18T15:16:14;6.80;;;2.30;;
18159;SDS011;9205;52.032;4.314;2022-11-18T15:18:44;3.53;;;2.30;;
18159;SDS011;9205;52.032;4.314;2022-11-18T15:21:14;4.67;;;2.63;;
18159;SDS011;9205;52.032;4.314;2022-11-18T15:23:46;4.77;;;2.50;;
18159;SDS011;9205;52.032;4.314;2022-11-18T15:26:16;4.13;;;2.67;;
18159;SDS011;9205;52.032;4.314;2022-11-18T15:28:47;4.70;;;2.40;;
18159;SDS011;9205;52.032;4.314;2022-11-18T15:31:18;3.30;;;2.43;;
18159;SDS011;9205;52.032;4.314;2022-11-18T15:33:47;3.10;;;2.30;;
18159;SDS011;9205;52.032;4.314;2022-11-18T15:36:18;5.07;;;2.40;;
18159;SDS011;9205;52.032;4.314;2022-11-18T15:38:52;2.77;;;2.17;;
18159;SDS011;9205;52.032;4.314;2022-11-18T15:41:40;3.40;;;2.20;;
18159;SDS011;9205;52.032;4.314;2022-11-18T15:44:14;4.80;;;2.70;;
18159;SDS011;9205;52.032;4.314;2022-11-18T15:46:49;5.27;;;2.50;;
18159;SDS011;9205;52.032;4.314;2022-11-18T15:49:23;2.63;;;2.00;;
18159;SDS011;9205;52.032;4.314;2022-11-18T15:51:50;5.80;;;2.83;;
18159;SDS011;9205;52.032;4.314;2022-11-18T15:54:19;5.20;;;2.60;;
18159;SDS011;9205;52.032;4.314;2022-11-18T15:56:47;3.37;;;2.40;;
18159;SDS011;9205;52.032;4.314;2022-11-18T15:59:20;3.90;;;2.30;;
18159;SDS011;9205;52.032;4.314;2022-11-18T16:01:47;4.10;;;2.67;;
18159;SDS011;9205;52.032;4.314;2022-11-18T16:04:15;6.03;;;2.73;;